createdAt,value
2023-04-22T00:01:00.373Z,85.18
2023-04-22T00:02:32.998Z,85.02
2023-04-22T00:04:05.455Z,84.65
2023-04-22T00:05:38.239Z,84.79
2023-04-22T00:07:10.586Z,84.55
2023-04-22T00:08:42.656Z,84.59
2023-04-22T00:10:14.781Z,84.65
2023-04-22T00:11:46.925Z,84.91
2023-04-22T00:13:19.137Z,85.01
2023-04-22T00:14:51.333Z,85.17
2023-04-22T00:16:23.531Z,85.74
2023-04-22T00:17:55.814Z,85.93
2023-04-22T00:19:28.613Z,86.49
2023-04-22T00:21:01.233Z,86.50
2023-04-22T00:22:33.310Z,86.72
2023-04-22T00:24:05.632Z,86.80
2023-04-22T00:25:37.792Z,87.12
2023-04-22T00:27:10.023Z,87.32
2023-04-22T00:28:42.141Z,87.24
2023-04-22T00:30:14.408Z,87.24
2023-04-22T00:31:46.666Z,87.18
2023-04-22T00:33:18.814Z,87.02
2023-04-22T00:34:51.039Z,87.26
2023-04-22T00:36:23.137Z,87.15
2023-04-22T00:37:55.409Z,86.85
2023-04-22T00:39:27.636Z,86.87
2023-04-22T00:40:59.907Z,86.94
2023-04-22T00:42:32.145Z,87.03
2023-04-22T00:44:04.449Z,86.75
2023-04-22T00:45:37.797Z,86.95
2023-04-22T00:47:10.593Z,87.27
2023-04-22T00:48:42.808Z,87.10
2023-04-22T00:50:15.997Z,87.20
2023-04-22T00:51:48.098Z,87.31
2023-04-22T00:53:20.206Z,87.24
2023-04-22T00:54:52.799Z,87.37
2023-04-22T00:56:28.824Z,87.60
2023-04-22T00:58:01.744Z,87.83
2023-04-22T00:59:34.054Z,88.13
2023-04-22T01:01:06.202Z,88.42
2023-04-22T01:02:41.729Z,88.54
2023-04-22T01:04:14.874Z,88.45
2023-04-22T01:05:49.143Z,88.94
2023-04-22T01:07:22.162Z,88.88
2023-04-22T01:08:54.695Z,89.10
2023-04-22T01:10:26.805Z,89.21
2023-04-22T01:11:58.938Z,89.28
2023-04-22T01:13:31.063Z,89.37
2023-04-22T01:15:04.961Z,89.55
2023-04-22T01:16:39.416Z,89.89
2023-04-22T01:18:11.736Z,90.16
2023-04-22T01:19:44.370Z,90.43
2023-04-22T01:21:17.500Z,90.30
2023-04-22T01:22:51.397Z,89.99
2023-04-22T01:24:23.590Z,89.93
2023-04-22T01:25:56.210Z,89.49
2023-04-22T01:27:28.560Z,89.12
2023-04-22T01:29:02.705Z,89.07
2023-04-22T01:30:35.061Z,89.30
2023-04-22T01:32:07.363Z,89.07
2023-04-22T01:33:39.493Z,89.01
2023-04-22T01:35:11.763Z,88.98
2023-04-22T01:36:45.066Z,88.77
2023-04-22T01:38:17.188Z,88.71
2023-04-22T01:39:49.620Z,88.05
2023-04-22T01:41:22.821Z,88.27
2023-04-22T01:42:54.948Z,88.82
2023-04-22T01:44:27.378Z,89.43
2023-04-22T01:46:02.452Z,89.51
2023-04-22T01:47:34.585Z,89.68
2023-04-22T01:49:06.728Z,90.20
2023-04-22T01:50:38.808Z,90.76
2023-04-22T01:52:11.060Z,90.52
2023-04-22T01:53:43.184Z,90.74
2023-04-22T01:55:15.604Z,90.86
2023-04-22T01:56:54.886Z,90.48
2023-04-22T01:58:30.204Z,90.18
2023-04-22T02:00:02.707Z,90.34
2023-04-22T02:01:34.880Z,89.94
2023-04-22T02:03:07.213Z,89.99
2023-04-22T02:04:39.645Z,89.76
2023-04-22T02:06:12.018Z,89.83
2023-04-22T02:07:44.184Z,89.55
2023-04-22T02:09:16.287Z,89.48
2023-04-22T02:10:48.346Z,88.66
2023-04-22T02:12:20.514Z,88.29
2023-04-22T02:13:52.607Z,88.16
2023-04-22T02:15:24.668Z,88.36
2023-04-22T02:16:56.752Z,88.16
2023-04-22T02:18:28.872Z,88.27
2023-04-22T02:20:00.971Z,88.11
2023-04-22T02:21:33.299Z,87.65
2023-04-22T02:23:05.822Z,87.52
2023-04-22T02:24:37.960Z,87.57
2023-04-22T02:26:10.544Z,87.35
2023-04-22T02:27:45.116Z,87.47
2023-04-22T02:29:17.634Z,87.38
2023-04-22T02:30:49.686Z,87.05
2023-04-22T02:32:21.825Z,87.26
2023-04-22T02:33:53.935Z,87.53
2023-04-22T02:35:26.096Z,87.57
2023-04-22T02:36:58.196Z,87.48
2023-04-22T02:38:30.319Z,87.42
2023-04-22T02:40:02.589Z,87.60
2023-04-22T02:41:34.718Z,87.72
2023-04-22T02:43:06.857Z,88.33
2023-04-22T02:44:39.076Z,88.72
2023-04-22T02:46:13.566Z,88.69
2023-04-22T02:47:45.682Z,88.59
2023-04-22T02:49:17.873Z,88.20
2023-04-22T02:50:50.036Z,88.48
2023-04-22T02:52:22.254Z,88.62
2023-04-22T02:53:54.470Z,88.80
2023-04-22T02:55:26.629Z,89.00
2023-04-22T02:56:58.843Z,89.09
2023-04-22T02:58:31.099Z,88.51
2023-04-22T03:00:03.355Z,88.20
2023-04-22T03:01:35.521Z,87.87
2023-04-22T03:03:07.818Z,87.95
2023-04-22T03:04:40.085Z,88.07
2023-04-22T03:06:12.295Z,87.87
2023-04-22T03:07:45.044Z,87.85
2023-04-22T03:09:17.837Z,87.70
2023-04-22T03:10:50.017Z,88.03
2023-04-22T03:12:22.574Z,87.88
2023-04-22T03:13:56.975Z,88.31
2023-04-22T03:15:32.154Z,88.67
2023-04-22T03:17:04.315Z,88.92
2023-04-22T03:18:36.624Z,88.97
2023-04-22T03:20:09.401Z,89.13
2023-04-22T03:21:41.522Z,88.95
2023-04-22T03:23:13.588Z,88.68
2023-04-22T03:24:48.009Z,88.58
2023-04-22T03:26:20.228Z,88.75
2023-04-22T03:27:52.337Z,88.88
2023-04-22T03:29:24.443Z,88.75
2023-04-22T03:30:56.681Z,88.64
2023-04-22T03:32:28.853Z,88.85
2023-04-22T03:34:01.761Z,88.78
2023-04-22T03:35:33.927Z,88.71
2023-04-22T03:37:06.108Z,88.72
2023-04-22T03:38:38.146Z,88.86
2023-04-22T03:40:12.127Z,88.83
2023-04-22T03:41:45.817Z,88.32
2023-04-22T03:43:17.931Z,88.13
2023-04-22T03:44:50.050Z,88.32
2023-04-22T03:46:22.377Z,88.11
2023-04-22T03:47:54.638Z,88.36
2023-04-22T03:49:26.808Z,88.05
2023-04-22T03:50:59.088Z,88.08
2023-04-22T03:52:31.278Z,88.38
2023-04-22T03:54:03.474Z,87.96
2023-04-22T03:55:35.710Z,88.01
2023-04-22T03:57:07.884Z,88.27
2023-04-22T03:58:40.069Z,88.21
2023-04-22T04:00:12.842Z,88.49
2023-04-22T04:01:47.217Z,88.65
2023-04-22T04:03:19.465Z,88.64
2023-04-22T04:04:52.061Z,88.72
2023-04-22T04:06:24.536Z,88.73
2023-04-22T04:07:57.022Z,88.77
2023-04-22T04:09:29.182Z,89.08
2023-04-22T04:11:01.339Z,89.05
2023-04-22T04:12:33.556Z,89.09
2023-04-22T04:14:05.848Z,88.94
2023-04-22T04:15:38.098Z,88.90
2023-04-22T04:17:10.221Z,89.02
2023-04-22T04:18:42.580Z,89.13
2023-04-22T04:20:17.796Z,88.74
2023-04-22T04:21:49.988Z,88.86
2023-04-22T04:23:22.114Z,89.07
2023-04-22T04:24:56.326Z,89.27
2023-04-22T04:26:28.454Z,89.44
2023-04-22T04:28:02.016Z,89.82
2023-04-22T04:29:34.101Z,89.97
2023-04-22T04:31:06.300Z,90.34
2023-04-22T04:32:38.447Z,90.70
2023-04-22T04:34:10.744Z,91.02
2023-04-22T04:35:43.791Z,91.08
2023-04-22T04:37:17.248Z,91.12
2023-04-22T04:38:49.304Z,91.15
2023-04-22T04:40:22.515Z,91.79
2023-04-22T04:41:59.073Z,91.73
2023-04-22T04:43:31.378Z,92.04
2023-04-22T04:45:03.959Z,92.12
2023-04-22T04:46:38.250Z,92.28
2023-04-22T04:48:10.469Z,92.27
2023-04-22T04:49:44.100Z,92.34
2023-04-22T04:51:18.227Z,92.82
2023-04-22T04:52:53.008Z,92.84
2023-04-22T04:54:25.250Z,92.77
2023-04-22T04:55:57.406Z,93.06
2023-04-22T04:57:29.522Z,93.14
2023-04-22T04:59:01.654Z,93.68
2023-04-22T05:00:33.848Z,94.12
2023-04-22T05:02:06.214Z,94.24
2023-04-22T05:03:38.687Z,94.30
2023-04-22T05:05:11.044Z,94.25
2023-04-22T05:06:43.356Z,94.72
2023-04-22T05:08:15.639Z,94.75
2023-04-22T05:09:47.826Z,95.20
2023-04-22T05:11:19.934Z,95.26
2023-04-22T05:12:52.243Z,94.92
2023-04-22T05:14:24.426Z,94.92
2023-04-22T05:15:56.759Z,94.84
2023-04-22T05:17:29.127Z,94.64
2023-04-22T05:19:01.968Z,94.18
2023-04-22T05:20:36.163Z,94.16
2023-04-22T05:22:08.546Z,93.80
2023-04-22T05:23:40.898Z,93.97
2023-04-22T05:25:13.056Z,93.77
2023-04-22T05:26:45.232Z,93.90
2023-04-22T05:28:17.320Z,93.81
2023-04-22T05:29:49.500Z,93.75
2023-04-22T05:31:21.899Z,93.69
2023-04-22T05:32:57.168Z,93.65
2023-04-22T05:34:29.364Z,93.55
2023-04-22T05:36:01.554Z,93.51
2023-04-22T05:37:33.775Z,93.27
2023-04-22T05:39:06.513Z,93.01
2023-04-22T05:40:38.677Z,93.02
2023-04-22T05:42:10.869Z,93.06
2023-04-22T05:43:43.034Z,93.25
2023-04-22T05:45:16.165Z,93.35
2023-04-22T05:46:48.417Z,92.75
2023-04-22T05:48:20.576Z,92.30
2023-04-22T05:49:55.212Z,91.71
2023-04-22T05:51:27.362Z,90.94
2023-04-22T05:52:59.541Z,90.58
2023-04-22T05:54:31.786Z,90.42
2023-04-22T05:56:03.909Z,90.58
2023-04-22T05:57:36.105Z,90.41
2023-04-22T05:59:08.312Z,90.02
2023-04-22T06:00:40.509Z,89.22
2023-04-22T06:02:12.989Z,88.80
2023-04-22T06:03:45.469Z,88.48
2023-04-22T06:05:17.873Z,87.47
2023-04-22T06:06:50.373Z,87.09
2023-04-22T06:08:22.573Z,87.49
2023-04-22T06:10:03.806Z,86.89
2023-04-22T06:11:40.898Z,84.67
2023-04-22T06:13:13.080Z,83.63
2023-04-22T06:14:45.150Z,83.84
2023-04-22T06:16:17.286Z,83.99
2023-04-22T06:17:49.552Z,83.32
2023-04-22T06:19:21.884Z,82.74
2023-04-22T06:20:54.306Z,82.84
2023-04-22T06:22:26.414Z,82.60
2023-04-22T06:23:58.859Z,81.83
2023-04-22T06:25:31.124Z,81.02
2023-04-22T06:27:09.210Z,80.87
2023-04-22T06:28:41.430Z,80.71
2023-04-22T06:30:13.825Z,80.91
2023-04-22T06:31:46.183Z,80.91
2023-04-22T06:33:18.358Z,80.31
2023-04-22T06:34:50.484Z,80.18
2023-04-22T06:36:22.745Z,80.24
2023-04-22T06:37:54.866Z,80.01
2023-04-22T06:39:26.984Z,80.78
2023-04-22T06:41:01.872Z,81.61
2023-04-22T06:42:33.973Z,81.18
2023-04-22T06:44:06.095Z,80.87
2023-04-22T06:45:38.308Z,81.02
2023-04-22T06:47:10.421Z,81.14
2023-04-22T06:48:43.104Z,81.12
2023-04-22T06:50:15.406Z,80.87
2023-04-22T06:51:47.626Z,80.89
2023-04-22T06:53:19.747Z,80.48
2023-04-22T06:54:51.892Z,80.64
2023-04-22T06:56:23.988Z,80.21
2023-04-22T06:57:57.113Z,80.26
2023-04-22T06:59:29.238Z,80.70
2023-04-22T07:01:01.336Z,81.13
2023-04-22T07:02:33.559Z,81.21
2023-04-22T07:04:05.853Z,80.86
2023-04-22T07:05:39.686Z,79.85
2023-04-22T07:07:12.110Z,80.08
2023-04-22T07:08:44.360Z,79.97
2023-04-22T07:10:16.570Z,80.60
2023-04-22T07:11:48.828Z,81.68
2023-04-22T07:13:21.012Z,82.27
2023-04-22T07:14:53.073Z,82.66
2023-04-22T07:16:25.713Z,81.74
2023-04-22T07:17:57.842Z,82.23
2023-04-22T07:19:31.592Z,81.68
2023-04-22T07:21:05.278Z,81.42
2023-04-22T07:22:37.454Z,81.84
2023-04-22T07:24:12.394Z,82.05
2023-04-22T07:25:44.556Z,83.39
2023-04-22T07:27:16.901Z,83.91
2023-04-22T07:28:49.061Z,84.59
2023-04-22T07:30:21.163Z,84.83
2023-04-22T07:31:53.441Z,84.99
2023-04-22T07:33:25.722Z,84.72
2023-04-22T07:34:57.862Z,85.42
2023-04-22T07:36:30.154Z,85.80
2023-04-22T07:38:02.245Z,85.83
2023-04-22T07:39:34.368Z,85.79
2023-04-22T07:41:06.473Z,87.22
2023-04-22T07:42:39.964Z,86.46
2023-04-22T07:44:16.794Z,87.08
2023-04-22T07:45:49.228Z,87.31
2023-04-22T07:47:21.720Z,86.69
2023-04-22T07:48:53.882Z,86.39
2023-04-22T07:50:26.131Z,87.47
2023-04-22T07:51:58.246Z,88.09
2023-04-22T07:53:30.352Z,87.51
2023-04-22T07:55:02.663Z,88.14
2023-04-22T07:56:35.149Z,87.72
2023-04-22T07:58:07.389Z,88.63
2023-04-22T07:59:39.949Z,88.11
2023-04-22T08:01:12.337Z,88.32
2023-04-22T08:02:44.718Z,87.79
2023-04-22T08:04:17.981Z,87.65
2023-04-22T08:05:50.326Z,87.49
2023-04-22T08:08:57.783Z,87.67
2023-04-22T08:10:29.915Z,87.67
2023-04-22T08:12:03.235Z,87.43
2023-04-22T08:13:35.384Z,87.65
2023-04-22T08:15:07.934Z,87.06
2023-04-22T08:16:40.576Z,86.62
2023-04-22T08:18:12.683Z,86.19
2023-04-22T08:19:45.889Z,86.53
2023-04-22T08:21:18.137Z,86.63
2023-04-22T08:22:51.962Z,86.58
2023-04-22T08:24:24.196Z,86.68
2023-04-22T08:25:56.427Z,86.92
2023-04-22T08:27:28.654Z,87.29
2023-04-22T08:29:01.518Z,87.59
2023-04-22T08:30:33.683Z,87.74
2023-04-22T08:32:05.861Z,87.94
2023-04-22T08:33:38.028Z,88.27
2023-04-22T08:35:10.357Z,89.10
2023-04-22T08:36:42.944Z,89.88
2023-04-22T08:38:15.192Z,90.53
2023-04-22T08:39:47.345Z,91.43
2023-04-22T08:41:19.845Z,91.47
2023-04-22T08:42:52.642Z,92.01
2023-04-22T08:44:25.073Z,92.13
2023-04-22T08:45:57.418Z,92.42
2023-04-22T08:47:29.767Z,92.79
2023-04-22T08:49:04.953Z,93.31
2023-04-22T08:50:39.838Z,93.39
2023-04-22T08:52:13.195Z,93.68
2023-04-22T08:53:45.333Z,93.34
2023-04-22T08:55:17.533Z,93.55
2023-04-22T08:56:51.219Z,93.80
2023-04-22T08:58:24.070Z,93.71
2023-04-22T08:59:57.214Z,93.77
2023-04-22T09:01:32.110Z,93.92
2023-04-22T09:03:06.798Z,94.45
2023-04-22T09:04:39.078Z,94.79
2023-04-22T09:06:12.065Z,95.14
2023-04-22T09:07:44.598Z,94.92
2023-04-22T09:09:16.696Z,94.92
2023-04-22T09:10:49.110Z,95.21
2023-04-22T09:12:21.732Z,95.02
2023-04-22T09:13:55.245Z,94.99
2023-04-22T09:15:28.163Z,94.57
2023-04-22T09:17:00.374Z,94.82
2023-04-22T09:18:47.867Z,94.69
2023-04-22T09:20:20.538Z,94.75
2023-04-22T09:21:54.439Z,94.36
2023-04-22T09:23:27.260Z,94.56
2023-04-22T09:24:59.422Z,93.36
2023-04-22T09:26:31.802Z,92.13
2023-04-22T09:28:04.010Z,91.28
2023-04-22T09:29:36.199Z,90.94
2023-04-22T09:31:14.706Z,91.82
2023-04-22T09:32:55.268Z,92.52
2023-04-22T09:34:28.327Z,92.63
2023-04-22T09:36:00.528Z,92.21
2023-04-22T09:37:46.635Z,91.50
2023-04-22T09:39:21.390Z,91.66
2023-04-22T09:40:53.499Z,91.60
2023-04-22T09:42:25.635Z,91.01
2023-04-22T09:43:58.846Z,89.17
2023-04-22T09:45:33.314Z,87.84
2023-04-22T09:47:05.468Z,86.68
2023-04-22T09:48:43.879Z,87.25
2023-04-22T09:50:15.967Z,87.73
2023-04-22T09:51:49.907Z,87.89
2023-04-22T09:53:22.848Z,86.86
2023-04-22T09:54:55.219Z,85.81
2023-04-22T09:56:54.094Z,83.93
2023-04-22T09:58:28.397Z,83.93
2023-04-22T10:00:00.690Z,83.58
2023-04-22T10:01:37.996Z,83.24
2023-04-22T10:03:11.228Z,83.62
2023-04-22T10:04:43.522Z,82.59
2023-04-22T10:06:15.707Z,82.92
2023-04-22T10:07:48.070Z,82.03
2023-04-22T10:09:22.700Z,81.21
2023-04-22T10:10:54.842Z,81.72
2023-04-22T10:12:35.204Z,80.85
2023-04-22T10:14:11.022Z,80.08
2023-04-22T10:15:46.641Z,80.19
2023-04-22T10:17:19.581Z,79.54
2023-04-22T10:18:52.895Z,77.88
2023-04-22T10:20:26.384Z,79.69
2023-04-22T10:21:59.263Z,79.75
2023-04-22T10:23:34.415Z,77.54
2023-04-22T10:25:06.785Z,75.82
2023-04-22T10:26:40.280Z,73.01
2023-04-22T10:28:13.174Z,71.75
2023-04-22T10:29:45.365Z,72.04
2023-04-22T10:31:24.384Z,70.26
2023-04-22T10:32:56.714Z,73.50
2023-04-22T10:34:32.828Z,71.24
2023-04-22T10:36:17.028Z,69.57
2023-04-22T10:37:49.800Z,71.57
2023-04-22T10:39:22.522Z,71.12
2023-04-22T10:41:01.109Z,70.30
2023-04-22T10:42:33.300Z,69.51
2023-04-22T10:44:08.943Z,70.99
2023-04-22T10:45:41.069Z,69.78
2023-04-22T10:47:13.151Z,69.73
2023-04-22T10:48:51.144Z,70.43
2023-04-22T10:50:28.068Z,69.69
2023-04-22T10:52:08.213Z,65.65
2023-04-22T10:53:43.123Z,67.45
2023-04-22T10:55:15.295Z,66.47
2023-04-22T10:57:09.344Z,65.10
2023-04-22T10:58:41.462Z,63.91
2023-04-22T11:00:23.997Z,62.26
2023-04-22T11:01:56.393Z,61.22
2023-04-22T11:03:30.341Z,62.59
2023-04-22T11:05:25.329Z,60.83
2023-04-22T11:07:31.122Z,57.00
2023-04-22T11:09:11.150Z,58.28
2023-04-22T11:10:45.552Z,58.59
2023-04-22T11:12:44.352Z,59.76
2023-04-22T11:14:16.506Z,58.02
2023-04-22T11:15:55.482Z,57.12
2023-04-22T11:17:28.209Z,57.59
2023-04-22T11:19:00.535Z,60.10
2023-04-22T11:20:32.833Z,59.81
2023-04-22T11:22:05.701Z,56.30
2023-04-22T11:23:37.906Z,55.48
2023-04-22T11:25:13.336Z,58.42
2023-04-22T11:26:46.685Z,54.76
2023-04-22T11:28:21.676Z,55.67
2023-04-22T11:30:17.130Z,55.86
2023-04-22T11:31:49.725Z,54.87
2023-04-22T11:33:22.038Z,54.60
2023-04-22T11:34:54.265Z,55.00
2023-04-22T11:36:26.881Z,54.69
2023-04-22T11:38:02.073Z,57.06
2023-04-22T11:39:43.643Z,56.63
2023-04-22T11:41:23.622Z,50.62
2023-04-22T11:42:57.002Z,54.46
2023-04-22T11:44:28.916Z,55.70
2023-04-22T11:46:01.148Z,53.82
2023-04-22T11:47:35.078Z,55.65
2023-04-22T11:49:17.008Z,54.11
2023-04-22T11:50:49.324Z,51.24
2023-04-22T11:52:21.519Z,53.72
2023-04-22T11:53:53.695Z,54.39
2023-04-22T11:55:36.858Z,55.21
2023-04-22T11:57:12.043Z,53.03
2023-04-22T11:58:44.132Z,52.98
2023-04-22T12:00:18.038Z,53.64
2023-04-22T12:01:50.197Z,52.34
2023-04-22T12:03:26.036Z,51.83
2023-04-22T12:04:59.359Z,55.40
2023-04-22T12:06:32.749Z,53.70
2023-04-22T12:08:07.146Z,53.42
2023-04-22T12:09:40.159Z,52.32
2023-04-22T12:11:12.841Z,48.12
2023-04-22T12:12:44.965Z,51.62
2023-04-22T12:14:17.058Z,51.83
2023-04-22T12:15:50.210Z,52.68
2023-04-22T12:17:25.934Z,54.38
2023-04-22T12:18:58.031Z,51.34
2023-04-22T12:20:34.783Z,54.86
2023-04-22T12:22:06.934Z,52.78
2023-04-22T12:23:46.365Z,56.42
2023-04-22T12:25:19.916Z,53.92
2023-04-22T12:26:51.993Z,54.15
2023-04-22T12:28:24.288Z,55.52
2023-04-22T12:29:57.129Z,56.08
2023-04-22T12:31:29.332Z,55.15
2023-04-22T12:33:01.576Z,54.06
2023-04-22T12:34:33.740Z,52.14
2023-04-22T12:36:06.560Z,50.46
2023-04-22T12:37:38.949Z,51.07
2023-04-22T12:39:11.129Z,50.63
2023-04-22T12:40:43.270Z,51.02
2023-04-22T12:42:15.456Z,50.79
2023-04-22T12:43:48.133Z,49.88
2023-04-22T12:45:20.348Z,47.97
2023-04-22T12:46:52.622Z,48.28
2023-04-22T12:48:24.895Z,46.77
2023-04-22T12:49:58.927Z,47.27
2023-04-22T12:51:31.342Z,47.33
2023-04-22T12:53:03.841Z,46.95
2023-04-22T12:54:36.104Z,47.63
2023-04-22T12:56:08.338Z,47.53
2023-04-22T12:57:40.477Z,47.40
2023-04-22T12:59:13.309Z,48.23
2023-04-22T13:00:45.452Z,46.22
2023-04-22T13:02:17.702Z,45.30
2023-04-22T13:03:53.801Z,45.61
2023-04-22T13:05:26.339Z,48.05
2023-04-22T13:06:58.517Z,46.26
2023-04-22T13:08:31.019Z,47.98
2023-04-22T13:10:03.131Z,46.99
2023-04-22T13:11:35.361Z,46.36
2023-04-22T13:14:43.978Z,47.88
2023-04-22T13:16:16.282Z,48.34
2023-04-22T13:17:50.293Z,48.73
2023-04-22T13:19:26.050Z,48.04
2023-04-22T13:20:58.277Z,48.53
2023-04-22T13:22:30.718Z,47.55
2023-04-22T13:24:02.892Z,45.39
2023-04-22T13:25:34.976Z,47.81
2023-04-22T13:27:09.812Z,45.79
2023-04-22T13:28:42.354Z,47.93
2023-04-22T13:30:14.928Z,47.11
2023-04-22T13:31:47.320Z,49.68
2023-04-22T13:33:19.482Z,48.27
2023-04-22T13:34:51.762Z,48.86
2023-04-22T13:36:23.982Z,46.54
2023-04-22T13:37:56.631Z,49.18
2023-04-22T13:39:28.912Z,48.34
2023-04-22T13:41:02.716Z,49.90
2023-04-22T13:42:36.005Z,46.11
2023-04-22T13:44:08.216Z,46.26
2023-04-22T13:45:41.197Z,45.93
2023-04-22T13:47:13.615Z,46.81
2023-04-22T13:48:45.782Z,45.47
2023-04-22T13:50:18.017Z,46.31
2023-04-22T13:51:50.157Z,46.71
2023-04-22T13:53:22.437Z,47.42
2023-04-22T13:54:54.788Z,46.15
2023-04-22T13:56:27.180Z,47.30
2023-04-22T13:57:59.301Z,44.83
2023-04-22T13:59:31.765Z,45.82
2023-04-22T14:01:04.644Z,43.54
2023-04-22T14:02:36.860Z,43.21
2023-04-22T14:04:09.047Z,42.75
2023-04-22T14:05:41.484Z,42.92
2023-04-22T14:07:13.820Z,43.76
2023-04-22T14:08:46.143Z,46.11
2023-04-22T14:10:20.793Z,46.42
2023-04-22T14:11:52.955Z,45.07
2023-04-22T14:13:25.155Z,44.81
2023-04-22T14:14:57.284Z,46.72
2023-04-22T14:16:29.494Z,46.31
2023-04-22T14:18:01.924Z,48.34
2023-04-22T14:19:34.528Z,48.28
2023-04-22T14:21:09.545Z,47.68
2023-04-22T14:22:41.657Z,45.44
2023-04-22T14:24:13.777Z,45.40
2023-04-22T14:25:46.936Z,43.21
2023-04-22T14:27:19.055Z,41.76
2023-04-22T14:28:51.201Z,43.72
2023-04-22T14:30:23.522Z,43.30
2023-04-22T14:31:56.278Z,45.17
2023-04-22T14:33:28.971Z,46.46
2023-04-22T14:35:01.071Z,46.64
2023-04-22T14:36:33.246Z,45.46
2023-04-22T14:38:08.576Z,45.35
2023-04-22T14:39:40.873Z,45.08
2023-04-22T14:41:13.492Z,44.43
2023-04-22T14:42:48.827Z,43.64
2023-04-22T14:44:20.954Z,46.07
2023-04-22T14:45:53.089Z,44.39
2023-04-22T14:47:25.347Z,44.96
2023-04-22T14:48:57.544Z,45.54
2023-04-22T14:50:29.804Z,46.66
2023-04-22T14:52:02.003Z,46.70
2023-04-22T14:53:34.479Z,45.49
2023-04-22T14:55:19.429Z,45.71
2023-04-22T14:56:58.979Z,46.96
2023-04-22T14:58:31.959Z,45.70
2023-04-22T15:00:08.383Z,48.39
2023-04-22T15:01:43.412Z,47.89
2023-04-22T15:03:15.985Z,49.05
2023-04-22T15:04:48.351Z,48.97
2023-04-22T15:06:20.662Z,48.53
2023-04-22T15:07:52.932Z,48.08
2023-04-22T15:09:25.035Z,48.98
2023-04-22T15:10:57.406Z,49.32
2023-04-22T15:12:29.649Z,49.25
2023-04-22T15:14:01.874Z,48.69
2023-04-22T15:15:34.043Z,49.04
2023-04-22T15:17:06.498Z,50.52
2023-04-22T15:18:38.839Z,49.91
2023-04-22T15:20:12.289Z,49.60
2023-04-22T15:21:44.438Z,50.14
2023-04-22T15:23:16.698Z,52.06
2023-04-22T15:24:48.875Z,52.26
2023-04-22T15:26:21.220Z,51.84
2023-04-22T15:27:56.859Z,52.61
2023-04-22T15:29:29.509Z,52.58
2023-04-22T15:31:01.851Z,52.80
2023-04-22T15:32:34.378Z,54.21
2023-04-22T15:34:06.936Z,54.80
2023-04-22T15:35:39.133Z,55.18
2023-04-22T15:37:13.460Z,55.89
2023-04-22T15:38:45.765Z,56.55
2023-04-22T15:40:17.994Z,56.74
2023-04-22T15:41:50.188Z,57.35
2023-04-22T15:43:22.266Z,57.53
2023-04-22T15:44:54.330Z,57.58
2023-04-22T15:46:28.942Z,57.82
2023-04-22T15:48:01.128Z,56.67
2023-04-22T15:49:33.248Z,57.96
2023-04-22T15:51:05.382Z,56.64
2023-04-22T15:52:38.271Z,58.05
2023-04-22T15:54:10.814Z,58.26
2023-04-22T15:55:42.926Z,58.21
2023-04-22T20:33:01.097Z,82.36
2023-04-22T20:34:34.107Z,82.50
2023-04-22T20:36:07.666Z,82.99
2023-04-22T20:37:40.366Z,83.65
2023-04-22T20:39:14.545Z,83.77
2023-04-22T20:40:47.341Z,83.66
2023-04-22T20:42:20.717Z,83.90
2023-04-22T20:43:53.247Z,83.71
2023-04-22T20:45:26.353Z,83.62
2023-04-22T20:46:59.288Z,83.79
2023-04-22T20:48:31.678Z,83.52
2023-04-22T20:50:04.668Z,83.44
2023-04-22T20:51:36.873Z,83.92
2023-04-22T20:53:08.991Z,83.93
2023-04-22T20:54:41.562Z,84.34
2023-04-22T20:56:13.795Z,84.38
2023-04-22T20:57:45.972Z,84.26
2023-04-22T20:59:18.072Z,84.19
2023-04-22T21:00:50.262Z,84.22
2023-04-22T21:02:22.773Z,84.29
2023-04-22T21:03:56.185Z,84.40
2023-04-22T21:05:28.329Z,84.07
2023-04-22T21:07:04.406Z,84.68
2023-04-22T21:08:39.588Z,84.64
2023-04-22T21:10:12.116Z,84.89
2023-04-22T21:11:44.439Z,84.73
2023-04-22T21:13:17.414Z,84.68
2023-04-22T21:14:49.970Z,85.06
2023-04-22T21:16:30.223Z,85.10
2023-04-22T21:18:03.540Z,84.74
2023-04-22T21:19:35.967Z,84.85
2023-04-22T21:21:08.569Z,84.60
2023-04-22T21:22:43.929Z,84.51
2023-04-22T21:24:16.244Z,84.17
2023-04-22T21:25:49.061Z,84.12
2023-04-22T21:27:22.452Z,83.93
2023-04-22T21:28:54.677Z,83.91
2023-04-22T21:30:26.967Z,84.19
2023-04-22T21:32:08.597Z,84.38
2023-04-22T21:33:41.727Z,84.47
2023-04-22T21:35:13.982Z,84.79
2023-04-22T21:36:46.084Z,84.48
2023-04-22T21:38:20.101Z,84.29
2023-04-22T21:39:52.677Z,84.18
2023-04-22T21:41:24.828Z,84.51
2023-04-22T21:42:56.975Z,84.76
2023-04-22T21:44:29.068Z,85.15
2023-04-22T21:46:01.337Z,85.25
2023-04-22T21:47:33.569Z,85.48
2023-04-22T21:49:05.720Z,85.51
2023-04-22T21:50:37.850Z,85.65
2023-04-22T21:52:10.111Z,85.45
2023-04-22T21:53:42.552Z,85.55
2023-04-22T21:55:14.676Z,85.34
2023-04-22T21:56:46.726Z,85.54
2023-04-22T21:58:18.900Z,85.31
2023-04-22T21:59:51.163Z,85.13
2023-04-22T22:01:23.462Z,85.13
2023-04-22T22:02:55.722Z,85.09
2023-04-22T22:04:28.121Z,84.98
2023-04-22T22:06:00.538Z,84.89
2023-04-22T22:07:32.626Z,84.88
2023-04-22T22:09:04.914Z,84.62
2023-04-22T22:10:37.027Z,85.09
2023-04-22T22:12:10.996Z,85.02
2023-04-22T22:13:43.504Z,84.95
2023-04-22T22:15:19.538Z,85.19
2023-04-22T22:16:54.189Z,85.35
2023-04-22T22:18:26.484Z,85.84
2023-04-22T22:19:58.646Z,85.92
2023-04-22T22:21:32.015Z,85.96
2023-04-22T22:23:04.109Z,86.25
2023-04-22T22:24:36.246Z,86.04
2023-04-22T22:26:08.706Z,85.70
2023-04-22T22:27:42.120Z,85.38
2023-04-22T22:29:17.162Z,85.11
2023-04-22T22:30:49.461Z,85.00
2023-04-22T22:32:21.769Z,85.26
2023-04-22T22:33:53.897Z,85.56
2023-04-22T22:35:26.016Z,85.58
2023-04-22T22:36:58.249Z,85.47
2023-04-22T22:38:30.389Z,85.24
2023-04-22T22:40:02.558Z,84.83
2023-04-22T22:41:34.724Z,84.66
2023-04-22T22:43:06.929Z,84.77
2023-04-22T22:44:39.189Z,84.88
2023-04-22T22:46:11.433Z,85.11
2023-04-22T22:47:43.613Z,85.44
2023-04-22T22:49:15.730Z,85.44
2023-04-22T22:50:49.343Z,85.54
2023-04-22T22:52:21.455Z,85.59
2023-04-22T22:53:53.612Z,85.57
2023-04-22T22:55:27.181Z,85.28
2023-04-22T22:56:59.284Z,84.80
2023-04-22T22:58:31.782Z,84.84
2023-04-22T23:00:06.248Z,84.87
2023-04-22T23:01:38.717Z,84.89
2023-04-22T23:03:11.031Z,85.12
2023-04-22T23:04:43.675Z,85.08
2023-04-22T23:06:16.171Z,84.79
2023-04-22T23:07:48.335Z,84.99
2023-04-22T23:09:20.893Z,84.67
2023-04-22T23:10:52.982Z,84.39
2023-04-22T23:12:28.253Z,84.39
2023-04-22T23:14:00.365Z,84.42
2023-04-22T23:15:32.473Z,84.21
2023-04-22T23:17:04.887Z,84.45
2023-04-22T23:18:37.553Z,84.74
2023-04-22T23:20:11.187Z,84.43
2023-04-22T23:21:44.075Z,84.54
2023-04-22T23:23:17.000Z,84.63
2023-04-22T23:24:49.496Z,84.73
2023-04-22T23:26:21.855Z,84.70
2023-04-22T23:27:54.158Z,85.09
2023-04-22T23:29:26.657Z,84.89
2023-04-22T23:30:59.204Z,85.11
2023-04-22T23:32:32.843Z,85.18
2023-04-22T23:34:06.052Z,84.90
2023-04-22T23:35:40.029Z,84.90
2023-04-22T23:37:15.111Z,84.57
2023-04-22T23:38:47.532Z,84.70
2023-04-22T23:40:19.768Z,84.51
2023-04-22T23:41:51.883Z,84.79
2023-04-22T23:43:24.188Z,85.18
2023-04-22T23:44:56.417Z,85.29
2023-04-22T23:46:28.712Z,85.24
2023-04-22T23:48:01.404Z,85.49
2023-04-22T23:49:33.578Z,85.63
2023-04-22T23:51:05.760Z,85.54
2023-04-22T23:52:41.509Z,85.80
2023-04-22T23:54:13.769Z,86.03
2023-04-22T23:55:46.056Z,86.53
2023-04-22T23:57:18.563Z,86.45
2023-04-22T23:58:51.564Z,86.55
